Time;durP1;ratioP1;P1;durP2;ratioP2;P2;SDS_P1;SDS_P2;PMS_P1;PMS_P2;Temp;Humidity;BMP_temperature;BMP_pressure;BME280_temperature;BME280_humidity;BME280_pressure;Samples;Min_cycle;Max_cycle;Signal;HPM_P1;HPM_P2
2021/06/30 00:01:09;;;;;;;;;;;;;;;;;;;;;
2021/06/30 00:04:25;;;;;;;;;;;;;;;;;;;;;
2021/06/30 00:07:23;;;;;;;;;;;;;;;;;;;;;
2021/06/30 00:10:21;;;;;;;7.70;3.58;;;;;;;13.25;86.97;92190.78;4764089;30;20052;-92
2021/06/30 00:14:07;;;;;;;;;;;;;;;;;;;;;
2021/06/30 00:20:34;;;;;;;7.28;3.40;;;;;;;13.18;88.16;92185.22;4786700;30;20054;-92
2021/06/30 00:23:29;;;;;;;6.75;3.88;;;;;;;13.20;88.21;92183.81;4759938;30;20498;-91
2021/06/30 00:26:42;;;;;;;;;;;;;;;;;;;;;
2021/06/30 00:30:16;;;;;;;;;;;;;;;;;;;;;
2021/06/30 00:33:22;;;;;;;5.35;3.22;;;;;;;13.17;85.52;92176.56;4790013;30;20054;-92
2021/06/30 00:36:21;;;;;;;7.72;3.90;;;;;;;13.18;85.89;92169.44;4773920;30;20055;-91
2021/06/30 00:39:35;;;;;;;;;;;;;;;;;;;;;
2021/06/30 00:42:52;;;;;;;;;;;;;;;;;;;;;
2021/06/30 00:45:36;;;;;;;;;;;;;;;;;;;;;
2021/06/30 00:49:13;;;;;;;;;;;;;;;;;;;;;
2021/06/30 00:52:22;;;;;;;;;;;;;;;;;;;;;
2021/06/30 00:54:59;;;;;;;6.13;3.33;;;;;;;13.40;83.59;92165.91;4776626;30;20071;-92
2021/06/30 00:57:55;;;;;;;;;;;;;;;;;;;;;
2021/06/30 01:01:05;;;;;;;8.65;3.20;;;;;;;13.58;82.47;92164.00;4770380;30;20060;-92
2021/06/30 01:04:35;;;;;;;;;;;;;;;;;;;;;
2021/06/30 01:07:22;;;;;;;6.63;3.40;;;;;;;13.67;84.68;92160.31;4771580;30;20150;-93
2021/06/30 01:10:03;;;;;;;6.88;3.60;;;;;;;13.64;85.01;92157.53;4772327;30;20144;-91
2021/06/30 01:12:59;;;;;;;9.32;3.53;;;;;;;13.65;85.75;92161.72;4731865;30;20471;-92
2021/06/30 01:15:57;;;;;;;6.97;3.58;;;;;;;13.62;86.30;92160.47;4772759;30;20089;-92
2021/06/30 01:18:45;;;;;;;6.50;3.50;;;;;;;13.58;85.89;92166.66;4771222;30;20483;-96
2021/06/30 01:21:43;;;;;;;5.97;3.40;;;;;;;13.44;86.32;92162.34;4761876;30;20105;-93
2021/06/30 01:24:27;;;;;;;6.30;3.40;;;;;;;13.45;86.17;92163.88;4774496;30;20051;-92
2021/06/30 01:27:13;;;;;;;;;;;;;;;;;;;;;
2021/06/30 01:29:53;;;;;;;8.63;3.38;;;;;;;13.42;85.61;92161.91;4788798;29;20509;-92
2021/06/30 01:33:01;;;;;;;6.03;3.17;;;;;;;13.44;86.18;92161.56;4773608;30;20570;-92
2021/06/30 01:36:14;;;;;;;;;;;;;;;;;;;;;
2021/06/30 01:39:32;;;;;;;;;;;;;;;;;;;;;
2021/06/30 01:42:55;;;;;;;;;;;;;;;;;;;;;
2021/06/30 01:48:53;;;;;;;7.10;3.35;;;;;;;13.52;85.41;92174.72;4760173;30;20055;-93
2021/06/30 01:52:04;;;;;;;;;;;;;;;;;;;;;
2021/06/30 01:58:15;;;;;;;4.72;3.00;;;;;;;13.49;85.82;92164.81;4747175;30;20060;-92
2021/06/30 02:01:24;;;;;;;;;;;;;;;;;;;;;
2021/06/30 02:04:42;;;;;;;7.28;3.03;;;;;;;13.47;84.77;92163.59;4783633;30;20047;-92
2021/06/30 02:07:34;;;;;;;;;;;;;;;;;;;;;
2021/06/30 02:10:33;;;;;;;;;;;;;;;;;;;;;
2021/06/30 02:13:15;;;;;;;;;;;;;;;;;;;;;
2021/06/30 02:16:04;;;;;;;;;;;;;;;;;;;;;
2021/06/30 02:19:06;;;;;;;;;;;;;;;;;;;;;
2021/06/30 02:22:23;;;;;;;4.72;2.88;;;;;;;13.45;84.62;92157.88;4786623;30;20518;-92
2021/06/30 02:25:18;;;;;;;6.55;3.05;;;;;;;13.50;84.98;92160.31;4764389;30;20062;-92
2021/06/30 02:31:02;;;;;;;5.38;3.05;;;;;;;13.49;85.47;92158.78;4764191;30;20480;-92
2021/06/30 02:33:50;;;;;;;7.20;3.45;;;;;;;13.51;85.20;92152.13;4761545;30;20043;-92
2021/06/30 02:36:55;;;;;;;7.57;3.47;;;;;;;13.53;85.53;92147.34;4746593;30;20525;-92
2021/06/30 02:39:53;;;;;;;;;;;;;;;;;;;;;
2021/06/30 02:42:45;;;;;;;8.60;3.25;;;;;;;13.58;85.57;92140.34;4773600;30;20059;-92
2021/06/30 02:45:27;;;;;;;7.18;3.50;;;;;;;13.65;86.08;92151.94;4745264;30;20056;-93
2021/06/30 02:52:09;;;;;;;6.22;3.05;;;;;;;13.67;85.75;92138.50;4759769;29;20060;-92
2021/06/30 02:54:42;;;;;;;6.35;3.60;;;;;;;13.67;84.53;92141.91;4756451;30;20055;-93
2021/06/30 02:57:49;;;;;;;;;;;;;;;;;;;;;
2021/06/30 03:00:36;;;;;;;5.15;3.40;;;;;;;13.74;83.96;92146.69;4757846;30;20075;-91
2021/06/30 03:03:28;;;;;;;5.78;3.50;;;;;;;13.72;84.26;92138.31;4771275;30;20395;-92
2021/06/30 03:06:29;;;;;;;;;;;;;;;;;;;;;
2021/06/30 03:09:18;;;;;;;10.10;3.00;;;;;;;13.77;81.17;92127.63;4756424;30;20082;-92
2021/06/30 03:12:36;;;;;;;;;;;;;;;;;;;;;
2021/06/30 03:15:24;;;;;;;;;;;;;;;;;;;;;
2021/06/30 03:18:35;;;;;;;6.90;3.20;;;;;;;13.98;80.49;92129.56;4775472;30;20047;-93
2021/06/30 03:21:51;;;;;;;;;;;;;;;;;;;;;
2021/06/30 03:24:47;;;;;;;;;;;;;;;;;;;;;
2021/06/30 03:27:56;;;;;;;;;;;;;;;;;;;;;
2021/06/30 03:30:51;;;;;;;;;;;;;;;;;;;;;
2021/06/30 03:33:37;;;;;;;;;;;;;;;;;;;;;
2021/06/30 03:36:44;;;;;;;;;;;;;;;;;;;;;
2021/06/30 03:39:40;;;;;;;;;;;;;;;;;;;;;
2021/06/30 03:45:56;;;;;;;5.30;3.10;;;;;;;14.24;82.28;92140.78;4771551;30;20052;-93
2021/06/30 03:49:17;;;;;;;4.70;2.70;;;;;;;14.34;79.21;92145.69;4752591;30;20072;-92
2021/06/30 03:52:06;;;;;;;9.50;3.10;;;;;;;14.31;81.37;92146.31;4755659;30;20146;-92
2021/06/30 03:54:47;;;;;;;4.82;2.92;;;;;;;14.31;81.50;92135.78;4773875;30;20053;-92
2021/06/30 03:57:37;;;;;;;;;;;;;;;;;;;;;
2021/06/30 04:00:58;;;;;;;7.43;2.90;;;;;;;14.40;81.15;92150.78;4770786;30;20510;-93
2021/06/30 04:03:54;;;;;;;4.47;2.25;;;;;;;14.40;79.12;92143.66;4741013;30;20115;-93
2021/06/30 04:06:33;;;;;;;;;;;;;;;;;;;;;
2021/06/30 04:09:22;;;;;;;3.97;2.00;;;;;;;14.50;75.58;92139.88;4771914;30;20396;-92
2021/06/30 04:12:24;;;;;;;;;;;;;;;;;;;;;
2021/06/30 04:15:29;;;;;;;4.47;1.90;;;;;;;14.62;72.86;92145.28;4789876;30;20057;-92
2021/06/30 04:18:07;;;;;;;3.60;2.10;;;;;;;14.65;70.96;92141.22;4765688;30;20047;-92
2021/06/30 04:21:09;;;;;;;4.85;1.92;;;;;;;14.73;71.47;92141.16;4775056;30;20050;-92
2021/06/30 04:24:09;;;;;;;;;;;;;;;;;;;;;
2021/06/30 04:27:13;;;;;;;4.97;2.03;;;;;;;14.75;72.10;92139.00;4771509;30;20094;-92
2021/06/30 04:30:13;;;;;;;5.13;2.88;;;;;;;14.80;72.21;92147.81;4756736;30;20674;-92
2021/06/30 04:33:11;;;;;;;5.28;2.30;;;;;;;14.73;73.27;92140.41;4780816;30;20055;-93
2021/06/30 04:36:20;;;;;;;;;;;;;;;;;;;;;
2021/06/30 04:42:20;;;;;;;;;;;;;;;;;;;;;
2021/06/30 04:45:01;;;;;;;5.20;1.88;;;;;;;14.84;70.06;92138.94;4772654;30;20039;-92
2021/06/30 04:47:48;;;;;;;3.85;1.80;;;;;;;14.85;69.76;92135.19;4761866;30;20413;-92
2021/06/30 04:59:45;;;;;;;;;;;;;;;;;;;;;
2021/06/30 05:07:48;;;;;;;;;;;;;;;;;;;;;
2021/06/30 06:17:39;;;;;;;6.15;1.70;;;;;;;16.84;57.98;92144.88;5171057;27;20174;-76
2021/06/30 06:20:07;;;;;;;4.22;1.50;;;;;;;16.91;56.92;92140.88;5150171;27;20042;-76
2021/06/30 06:22:32;;;;;;;4.55;1.58;;;;;;;17.03;57.21;92146.91;5130567;27;20031;-76
2021/06/30 06:24:58;;;;;;;2.45;1.40;;;;;;;17.17;57.85;92141.25;5129555;28;20088;-76
2021/06/30 06:27:24;;;;;;;3.45;1.67;;;;;;;17.39;55.90;92139.22;5111129;28;20544;-76
2021/06/30 06:29:51;;;;;;;3.33;1.50;;;;;;;17.42;56.00;92149.13;5111151;28;20097;-76
2021/06/30 06:32:18;;;;;;;3.72;1.50;;;;;;;18.99;54.41;92154.91;5129158;27;20424;-77
2021/06/30 06:34:44;;;;;;;2.60;1.50;;;;;;;22.11;47.93;92148.50;5110489;28;20035;-76
2021/06/30 06:37:12;;;;;;;5.93;1.70;;;;;;;20.95;47.52;92158.88;5129457;28;20071;-76
2021/06/30 06:39:38;;;;;;;2.78;1.30;;;;;;;20.39;47.68;92155.72;5110705;28;20454;-77
2021/06/30 06:42:06;;;;;;;2.97;1.42;;;;;;;19.85;49.61;92153.25;5129125;28;20039;-77
2021/06/30 06:44:33;;;;;;;1.88;1.10;;;;;;;19.37;49.81;92155.34;5111053;28;20047;-76
2021/06/30 06:46:59;;;;;;;6.25;1.63;;;;;;;19.17;51.83;92155.31;5128755;28;20468;-77
2021/06/30 06:49:24;;;;;;;3.63;1.58;;;;;;;19.09;53.18;92154.41;5111499;28;20130;-77
2021/06/30 06:51:50;;;;;;;2.97;1.40;;;;;;;19.58;52.06;92160.28;5130454;27;20477;-76
2021/06/30 06:54:15;;;;;;;4.28;1.40;;;;;;;19.79;50.77;92155.41;5094316;28;20035;-79
2021/06/30 06:56:41;;;;;;;6.55;1.48;;;;;;;19.61;52.05;92152.41;5131414;28;20035;-76
2021/06/30 06:59:07;;;;;;;3.05;1.38;;;;;;;19.63;51.72;92158.09;5125588;28;20043;-76
2021/06/30 07:01:32;;;;;;;2.88;1.50;;;;;;;19.60;51.91;92158.81;5124684;27;20064;-77
2021/06/30 07:03:58;;;;;;;4.88;1.70;;;;;;;19.60;51.33;92164.13;5126654;28;20512;-76
2021/06/30 07:06:24;;;;;;;5.25;1.40;;;;;;;19.63;51.97;92162.66;5125895;28;20118;-76
2021/06/30 07:08:49;;;;;;;4.18;1.40;;;;;;;19.60;51.42;92161.47;5108949;28;20114;-78
2021/06/30 07:11:15;;;;;;;1.98;1.38;;;;;;;19.51;48.95;92161.69;5125659;27;20031;-76
2021/06/30 07:13:41;;;;;;;2.97;1.73;;;;;;;19.31;48.76;92163.56;5127946;28;20071;-76
2021/06/30 07:16:07;;;;;;;1.98;1.30;;;;;;;19.29;48.71;92165.78;5108575;28;20524;-76
2021/06/30 07:18:34;;;;;;;4.13;1.40;;;;;;;19.33;49.51;92166.63;5088045;28;20071;-77
2021/06/30 07:21:01;;;;;;;1.88;1.20;;;;;;;19.26;49.43;92168.38;5081519;28;20028;-77
2021/06/30 07:23:27;;;;;;;3.03;1.30;;;;;;;19.30;49.03;92166.56;5086327;28;20174;-77
2021/06/30 07:25:54;;;;;;;1.92;1.20;;;;;;;19.26;48.61;92166.47;5086521;28;20381;-77
2021/06/30 07:28:20;;;;;;;2.67;1.33;;;;;;;19.28;48.73;92169.56;5077849;28;20549;-77
2021/06/30 07:30:46;;;;;;;4.60;1.30;;;;;;;19.40;48.28;92170.56;5073566;28;20033;-77
2021/06/30 07:33:12;;;;;;;4.15;1.38;;;;;;;19.45;48.13;92167.63;5073701;28;20056;-77
2021/06/30 07:35:38;;;;;;;3.72;1.38;;;;;;;19.38;47.83;92170.13;5073765;28;20037;-77
2021/06/30 07:38:04;;;;;;;4.03;1.30;;;;;;;19.51;46.96;92166.22;5072439;28;20127;-76
2021/06/30 07:40:30;;;;;;;4.13;1.38;;;;;;;20.08;47.20;92171.88;5072497;28;20043;-76
2021/06/30 07:42:56;;;;;;;3.72;1.10;;;;;;;20.08;46.11;92167.31;5073187;28;20494;-76
2021/06/30 07:45:22;;;;;;;4.13;1.48;;;;;;;20.14;46.93;92165.91;5073399;28;20028;-76
2021/06/30 07:47:48;;;;;;;2.38;1.33;;;;;;;20.24;49.43;92166.47;5073687;28;20048;-76
2021/06/30 07:50:16;;;;;;;7.07;1.63;;;;;;;20.34;49.08;92165.88;5073531;28;20502;-76
2021/06/30 07:52:43;;;;;;;3.03;1.30;;;;;;;20.39;48.17;92171.66;5072217;28;20513;-76
2021/06/30 07:55:09;;;;;;;2.35;1.35;;;;;;;20.55;48.36;92168.88;5073430;28;20040;-76
2021/06/30 07:57:34;;;;;;;5.10;1.30;;;;;;;20.79;49.27;92167.75;5073219;28;20039;-76
2021/06/30 08:00:00;;;;;;;1.90;1.13;;;;;;;20.97;47.99;92172.59;5072277;28;20036;-76
2021/06/30 08:02:26;;;;;;;4.65;1.42;;;;;;;21.03;49.95;92170.38;5055169;28;20028;-76
2021/06/30 08:04:51;;;;;;;7.45;1.50;;;;;;;21.15;49.28;92172.84;5073238;28;20107;-76
2021/06/30 08:07:17;;;;;;;2.45;1.40;;;;;;;21.12;48.13;92173.53;5076105;28;20056;-76
2021/06/30 08:09:43;;;;;;;6.70;1.77;;;;;;;21.37;49.02;92173.91;5071254;28;20033;-77
2021/06/30 08:12:08;;;;;;;3.75;1.48;;;;;;;21.86;48.40;92170.31;5073440;28;20561;-77
2021/06/30 08:14:34;;;;;;;3.33;1.50;;;;;;;22.32;48.32;92171.97;5071886;28;20529;-77
2021/06/30 08:17:04;;;;;;;3.17;1.33;;;;;;;22.60;46.14;92176.78;5055321;28;20041;-77
2021/06/30 08:19:30;;;;;;;5.32;1.60;;;;;;;22.80;45.23;92164.75;5053351;28;20159;-77
2021/06/30 08:21:56;;;;;;;4.63;1.45;;;;;;;23.34;44.58;92170.47;5053565;28;20494;-78
2021/06/30 08:24:21;;;;;;;8.45;3.55;;;;;;;21.98;56.16;92174.66;5052032;28;20047;-77
2021/06/30 08:26:47;;;;;;;6.75;3.25;;;;;;;21.68;57.71;92178.09;5002478;28;20048;-77
2021/06/30 08:29:13;;;;;;;4.43;2.80;;;;;;;20.98;58.93;92174.13;5051873;28;20069;-77
2021/06/30 08:31:39;;;;;;;5.43;2.85;;;;;;;20.79;57.36;92167.75;5050870;28;20044;-77
2021/06/30 08:34:05;;;;;;;3.50;2.10;;;;;;;21.07;53.44;92176.53;5052936;28;20055;-77
2021/06/30 08:36:30;;;;;;;8.05;2.30;;;;;;;20.25;54.46;92171.44;5051566;28;20045;-77
2021/06/30 08:38:56;;;;;;;4.00;1.90;;;;;;;21.08;51.59;92183.41;5034204;28;20111;-77
2021/06/30 08:41:22;;;;;;;2.97;1.75;;;;;;;21.63;51.17;92176.53;5034633;28;20033;-77
2021/06/30 08:43:49;;;;;;;6.95;3.33;;;;;;;21.70;55.77;92165.19;5053183;28;20383;-77
2021/06/30 08:46:19;;;;;;;7.43;2.08;;;;;;;21.47;49.79;92161.88;5051483;28;20033;-77
2021/06/30 08:48:45;;;;;;;3.10;1.60;;;;;;;22.20;46.77;92163.09;5051668;28;20538;-77
2021/06/30 08:51:14;;;;;;;5.15;1.80;;;;;;;22.51;45.21;92161.09;5052736;28;20039;-77
2021/06/30 08:53:43;;;;;;;4.15;2.00;;;;;;;22.19;50.08;92166.88;5051365;28;20082;-77
2021/06/30 08:56:09;;;;;;;3.55;1.83;;;;;;;21.52;47.64;92164.22;5051227;28;20041;-77
2021/06/30 08:58:36;;;;;;;4.18;2.30;;;;;;;21.19;55.50;92163.78;5053052;28;20151;-77
2021/06/30 09:01:03;;;;;;;4.28;2.13;;;;;;;20.87;51.47;92173.19;5051133;28;20131;-77
2021/06/30 09:03:29;;;;;;;4.20;2.25;;;;;;;20.71;55.20;92165.34;5051090;28;20401;-77
2021/06/30 09:08:22;;;;;;;5.72;2.28;;;;;;;21.59;51.30;92159.75;5051331;28;20406;-77
2021/06/30 09:10:48;;;;;;;5.45;2.30;;;;;;;21.68;54.46;92162.13;5052321;28;20280;-77
2021/06/30 09:13:25;;;;;;;6.45;2.45;;;;;;;21.49;52.13;92164.94;5051161;28;20037;-77
2021/06/30 09:16:00;;;;;;;4.55;2.00;;;;;;;20.79;51.50;92177.66;5054251;28;20063;-77
2021/06/30 09:18:31;;;;;;;4.13;2.00;;;;;;;20.84;50.00;92169.34;5070873;28;20044;-77
2021/06/30 09:21:25;;;;;;;3.63;1.90;;;;;;;20.43;47.42;92174.38;5054488;28;20040;-77
2021/06/30 09:23:58;;;;;;;11.85;2.00;;;;;;;20.31;52.40;92174.53;5072732;28;20067;-77
2021/06/30 09:26:24;;;;;;;3.33;1.70;;;;;;;20.82;49.97;92171.59;5070421;28;20382;-77
2021/06/30 09:28:49;;;;;;;8.27;1.95;;;;;;;21.09;48.21;92179.59;5070531;28;20114;-77
2021/06/30 09:31:16;;;;;;;4.70;1.80;;;;;;;20.64;46.81;92181.19;5071517;28;20040;-77
2021/06/30 09:33:52;;;;;;;7.05;2.08;;;;;;;21.12;46.84;92179.66;5070363;28;20056;-77
2021/06/30 09:36:20;;;;;;;9.40;2.08;;;;;;;21.26;46.22;92187.06;5070186;28;20058;-77
2021/06/30 09:38:46;;;;;;;4.50;1.80;;;;;;;21.59;47.07;92174.97;5071738;28;20101;-77
2021/06/30 09:41:25;;;;;;;5.85;2.03;;;;;;;21.54;47.58;92173.38;5071499;28;20067;-77
2021/06/30 09:44:04;;;;;;;4.32;2.00;;;;;;;21.56;46.72;92173.03;5070222;28;20115;-77
2021/06/30 09:46:30;;;;;;;3.72;1.88;;;;;;;21.02;48.06;92179.50;5071370;28;20025;-77
2021/06/30 09:48:58;;;;;;;4.68;1.70;;;;;;;20.91;50.80;92174.78;5070481;28;20048;-79
2021/06/30 09:51:24;;;;;;;3.92;2.22;;;;;;;20.92;51.77;92171.00;5074588;28;20025;-79
2021/06/30 09:53:50;;;;;;;3.28;1.85;;;;;;;20.75;49.09;92179.47;5070952;28;20341;-77
2021/06/30 09:56:33;;;;;;;4.47;2.20;;;;;;;21.49;51.03;92170.28;5071827;28;20102;-78
2021/06/30 09:59:14;;;;;;;4.45;1.90;;;;;;;21.51;46.29;92166.13;5070346;28;20486;-77
2021/06/30 10:01:44;;;;;;;4.95;2.42;;;;;;;21.30;47.38;92174.59;5072587;28;20089;-77
2021/06/30 10:04:22;;;;;;;7.65;2.30;;;;;;;21.38;46.92;92178.84;5071224;28;20108;-77
2021/06/30 10:06:48;;;;;;;5.07;2.22;;;;;;;21.38;49.70;92176.19;5073035;28;20437;-78
2021/06/30 10:09:14;;;;;;;4.75;2.40;;;;;;;21.64;52.82;92177.31;5069444;28;20077;-78
2021/06/30 10:11:40;;;;;;;5.22;2.20;;;;;;;21.59;47.37;92170.41;5071510;28;20032;-80
2021/06/30 10:14:06;;;;;;;4.25;2.40;;;;;;;21.88;50.18;92175.28;5072029;28;20040;-77
2021/06/30 10:16:32;;;;;;;11.00;2.42;;;;;;;21.88;48.15;92169.97;5067691;28;20112;-78
2021/06/30 10:18:59;;;;;;;5.90;2.20;;;;;;;21.37;51.09;92172.00;5072429;28;20050;-80
2021/06/30 10:21:29;;;;;;;4.28;2.40;;;;;;;21.56;52.56;92167.69;5070705;28;20147;-78
2021/06/30 10:23:55;;;;;;;6.20;3.22;;;;;;;22.31;51.05;92175.75;5073123;28;20056;-80
2021/06/30 10:26:21;;;;;;;6.57;2.33;;;;;;;22.61;47.02;92165.75;5051005;28;20441;-79
2021/06/30 10:29:01;;;;;;;6.53;2.33;;;;;;;22.76;47.99;92168.53;5040658;28;20040;-80
2021/06/30 10:31:35;;;;;;;6.22;2.30;;;;;;;22.65;47.28;92169.22;5069152;28;20033;-80
2021/06/30 10:34:03;;;;;;;4.65;2.38;;;;;;;22.88;47.90;92176.25;5077809;28;20036;-79
2021/06/30 10:36:48;;;;;;;8.10;3.08;;;;;;;23.34;48.67;92170.47;5075733;28;20078;-80
2021/06/30 10:39:16;;;;;;;5.18;2.70;;;;;;;23.28;48.22;92174.63;5073827;28;20036;-79
2021/06/30 10:41:41;;;;;;;4.80;2.40;;;;;;;22.32;49.45;92166.66;5074847;28;20136;-79
2021/06/30 10:44:19;;;;;;;4.95;2.50;;;;;;;21.90;48.00;92167.72;5072078;28;20052;-80
2021/06/30 10:46:45;;;;;;;6.20;2.67;;;;;;;22.31;49.33;92170.44;5071787;28;20118;-80
2021/06/30 10:49:14;;;;;;;6.85;2.90;;;;;;;22.43;49.98;92173.59;5073819;28;20165;-79
2021/06/30 10:51:40;;;;;;;7.85;2.95;;;;;;;22.80;49.00;92166.66;5072082;28;20539;-78
2021/06/30 10:54:37;;;;;;;4.97;2.80;;;;;;;22.98;48.44;92162.22;5072471;28;20039;-80
2021/06/30 10:57:26;;;;;;;6.95;2.50;;;;;;;23.05;48.40;92162.28;5070773;28;20029;-79
2021/06/30 11:00:01;;;;;;;5.32;3.00;;;;;;;21.94;49.06;92166.63;5054659;28;20429;-78
2021/06/30 11:02:31;;;;;;;12.27;3.00;;;;;;;22.57;50.85;92158.88;5061546;28;20090;-79
2021/06/30 11:04:57;;;;;;;7.57;2.90;;;;;;;22.50;50.14;92156.91;5054477;28;20497;-78
2021/06/30 11:07:33;;;;;;;6.93;2.95;;;;;;;22.22;50.31;92152.84;5070458;28;20066;-78
2021/06/30 11:10:17;;;;;;;6.15;3.22;;;;;;;22.47;48.17;92151.53;5058735;28;20070;-79
2021/06/30 11:13:00;;;;;;;8.18;2.95;;;;;;;22.83;51.08;92147.25;5074159;28;20397;-78
2021/06/30 11:15:35;;;;;;;10.40;3.10;;;;;;;23.00;49.52;92135.94;5073249;28;20047;-78
2021/06/30 11:18:02;;;;;;;8.02;2.95;;;;;;;23.25;48.97;92140.66;5076827;28;20051;-79
2021/06/30 11:20:48;;;;;;;5.60;3.03;;;;;;;23.11;49.73;92135.25;5081350;28;20031;-79
2021/06/30 11:23:19;;;;;;;6.45;2.80;;;;;;;23.50;49.00;92138.13;5073262;28;20122;-79
2021/06/30 11:25:48;;;;;;;6.57;3.10;;;;;;;23.24;50.07;92128.47;5079478;28;20118;-78
2021/06/30 11:28:37;;;;;;;9.60;3.35;;;;;;;22.47;51.51;92130.97;5078538;28;20039;-79
2021/06/30 11:31:24;;;;;;;9.05;3.03;;;;;;;22.40;51.41;92126.34;5096367;28;20025;-78
2021/06/30 11:34:11;;;;;;;5.80;3.30;;;;;;;22.20;50.67;92128.44;5079307;28;20048;-79
2021/06/30 11:36:39;;;;;;;7.55;3.10;;;;;;;22.30;50.46;92127.03;5081199;28;20035;-78
2021/06/30 11:39:10;;;;;;;8.23;3.22;;;;;;;22.42;52.24;92128.63;5076807;28;20028;-77
2021/06/30 11:41:49;;;;;;;6.10;3.25;;;;;;;22.68;50.68;92125.03;5077048;28;20040;-78
2021/06/30 11:44:17;;;;;;;5.38;2.95;;;;;;;22.66;51.03;92128.06;5076866;28;20063;-77
2021/06/30 11:46:44;;;;;;;7.28;3.30;;;;;;;23.17;51.91;92128.41;5076751;28;20031;-77
2021/06/30 11:49:12;;;;;;;11.52;3.65;;;;;;;23.40;48.40;92136.19;5095592;28;20497;-78
2021/06/30 11:51:38;;;;;;;9.02;3.50;;;;;;;23.02;46.05;92127.59;5077122;28;20044;-77
2021/06/30 11:54:12;;;;;;;6.03;3.00;;;;;;;23.05;49.92;92130.25;5076202;28;20409;-77
2021/06/30 11:56:40;;;;;;;7.53;3.10;;;;;;;23.33;48.43;92126.22;5077426;28;20032;-79
2021/06/30 12:02:49;;;;;;;7.30;3.58;;;;;;;23.00;47.48;92135.94;5102807;28;20126;-79
2021/06/30 12:05:16;;;;;;;5.55;2.85;;;;;;;23.13;48.14;92123.06;5084688;28;20088;-79
2021/06/30 12:07:44;;;;;;;5.72;2.90;;;;;;;22.80;48.63;92121.31;5083977;28;20055;-79
2021/06/30 12:10:11;;;;;;;6.68;3.40;;;;;;;22.59;49.30;92122.69;5068386;28;20031;-79
2021/06/30 12:12:37;;;;;;;9.77;3.28;;;;;;;22.63;49.38;92120.81;5066838;28;20043;-79
2021/06/30 12:43:33;;;;;;;9.50;2.92;;;;;;;23.43;46.04;92098.03;5088152;28;20062;-78
2021/06/30 12:46:02;;;;;;;8.73;2.90;;;;;;;23.15;44.09;92104.03;5087622;28;20051;-79
2021/06/30 12:48:32;;;;;;;5.65;2.90;;;;;;;23.64;44.09;92103.47;5088290;28;20078;-79
2021/06/30 12:51:10;;;;;;;5.95;2.92;;;;;;;23.22;44.21;92104.06;5104358;28;20051;-79
2021/06/30 12:53:37;;;;;;;6.68;2.92;;;;;;;23.70;42.55;92101.19;5105232;28;20043;-79
2021/06/30 12:59:21;;;;;;;8.20;2.80;;;;;;;24.29;41.67;92099.03;5124997;28;20389;-79
2021/06/30 13:01:46;;;;;;;4.22;2.80;;;;;;;24.17;41.29;92101.31;5106701;28;20047;-79
2021/06/30 13:07:43;;;;;;;6.97;2.80;;;;;;;23.51;44.41;92104.16;5124311;28;20488;-79
2021/06/30 13:10:16;;;;;;;5.78;3.08;;;;;;;23.30;44.37;92097.59;5088650;28;20051;-79
2021/06/30 13:21:06;;;;;;;6.78;3.00;;;;;;;22.84;44.73;92106.09;5122844;28;20042;-79
2021/06/30 13:23:42;;;;;;;6.38;2.72;;;;;;;23.25;43.02;92111.31;5122986;28;20380;-79
2021/06/30 13:26:20;;;;;;;6.72;2.83;;;;;;;23.62;43.53;92104.97;5122081;28;20044;-79
2021/06/30 13:38:31;;;;;;;5.45;2.90;;;;;;;23.50;42.89;92108.75;5078775;28;20520;-78
2021/06/30 13:41:00;;;;;;;7.78;2.80;;;;;;;23.85;42.14;92112.72;5061522;28;20048;-78
2021/06/30 14:52:03;;;;;;;4.60;2.05;;;;;;;23.43;36.38;92125.50;5103952;28;20277;-78
2021/06/30 14:54:29;;;;;;;4.38;2.20;;;;;;;23.62;38.31;92131.69;5102371;28;20524;-79
2021/06/30 14:56:55;;;;;;;5.03;1.80;;;;;;;23.96;37.51;92129.56;5068875;28;20036;-79
2021/06/30 14:59:22;;;;;;;5.53;1.63;;;;;;;24.37;37.58;92136.50;5104805;28;20048;-78
2021/06/30 15:01:47;;;;;;;4.15;1.48;;;;;;;24.60;34.21;92134.25;5071481;28;20052;-79
2021/06/30 15:04:13;;;;;;;4.35;1.60;;;;;;;24.36;34.28;92130.38;5086725;28;20144;-78
2021/06/30 15:10:34;;;;;;;2.65;1.40;;;;;;;25.27;35.44;92131.91;5106189;28;20105;-78
2021/06/30 15:13:22;;;;;;;3.65;1.70;;;;;;;25.64;32.31;92136.75;5071729;28;20044;-79
2021/06/30 15:15:47;;;;;;;3.08;1.50;;;;;;;24.71;33.54;92140.34;5105553;28;20036;-78
2021/06/30 15:18:33;;;;;;;4.00;1.58;;;;;;;25.04;33.11;92134.97;5087749;28;20046;-78
2021/06/30 15:20:59;;;;;;;7.00;1.80;;;;;;;24.91;33.36;92138.06;5086281;28;20040;-78
2021/06/30 15:23:26;;;;;;;5.57;1.80;;;;;;;24.58;34.51;92141.88;5085000;28;20055;-78
2021/06/30 15:26:11;;;;;;;3.15;1.40;;;;;;;24.73;33.50;92139.97;5085584;28;20135;-78
2021/06/30 15:28:36;;;;;;;4.82;1.60;;;;;;;24.56;35.23;92149.53;5085948;28;20071;-78
2021/06/30 15:31:03;;;;;;;3.35;1.83;;;;;;;24.59;35.37;92142.63;5068036;28;20039;-78
2021/06/30 15:33:30;;;;;;;4.93;1.60;;;;;;;24.27;34.73;92146.81;5066937;28;20043;-78
2021/06/30 15:35:58;;;;;;;2.88;1.30;;;;;;;24.42;34.38;92147.56;5069299;28;20062;-78
2021/06/30 15:38:24;;;;;;;5.50;1.73;;;;;;;24.95;35.46;92148.78;5100474;28;20060;-78
2021/06/30 15:44:44;;;;;;;3.58;1.70;;;;;;;24.91;33.16;92142.66;5105334;28;20097;-78
2021/06/30 16:01:06;;;;;;;2.88;1.50;;;;;;;25.53;30.10;92149.44;5091029;27;20105;-79
2021/06/30 16:03:50;;;;;;;3.67;1.48;;;;;;;25.59;31.97;92149.81;5103636;28;20545;-79
2021/06/30 16:10:13;;;;;;;3.85;1.65;;;;;;;25.50;31.97;92156.34;5103105;28;20079;-78
2021/06/30 16:16:33;;;;;;;4.43;1.20;;;;;;;25.93;28.90;92158.13;5104685;28;20039;-79
2021/06/30 16:22:22;;;;;;;3.28;1.35;;;;;;;24.98;30.65;92172.09;5084518;28;20070;-79
2021/06/30 16:24:47;;;;;;;4.43;1.30;;;;;;;24.71;32.13;92167.13;5101660;28;20048;-79
2021/06/30 16:31:07;;;;;;;3.10;1.67;;;;;;;23.68;33.02;92164.91;5100017;28;20039;-77
2021/06/30 16:33:34;;;;;;;2.53;1.40;;;;;;;23.54;33.05;92167.53;5074579;28;20462;-77
2021/06/30 16:36:04;;;;;;;3.30;1.17;;;;;;;23.42;36.13;92166.72;5054889;28;20056;-77
2021/06/30 16:38:30;;;;;;;3.33;1.60;;;;;;;23.60;39.11;92169.47;5069048;28;20067;-77
2021/06/30 16:40:56;;;;;;;3.60;1.50;;;;;;;23.58;37.39;92165.66;5084355;28;20044;-77
2021/06/30 16:43:22;;;;;;;5.88;1.50;;;;;;;23.35;37.09;92172.03;5058224;28;20039;-77
2021/06/30 16:45:47;;;;;;;2.35;1.27;;;;;;;23.02;35.13;92171.06;5074737;28;20051;-77
2021/06/30 16:48:13;;;;;;;4.65;1.48;;;;;;;23.24;37.07;92171.19;5074319;28;20048;-77
2021/06/30 16:50:39;;;;;;;3.40;1.55;;;;;;;23.41;35.01;92175.84;5074498;28;20044;-77
2021/06/30 16:53:05;;;;;;;2.83;1.60;;;;;;;23.43;36.18;92178.91;5074046;28;20123;-77
2021/06/30 16:55:30;;;;;;;3.78;1.90;;;;;;;23.36;37.27;92167.44;5074296;28;20048;-78
2021/06/30 16:57:56;;;;;;;5.53;1.65;;;;;;;23.74;37.75;92176.78;5066375;28;20127;-77
2021/06/30 17:00:24;;;;;;;3.63;1.73;;;;;;;23.92;39.06;92182.22;5075709;28;20060;-78
2021/06/30 17:02:51;;;;;;;2.97;1.80;;;;;;;23.99;38.80;92186.84;5092129;28;20089;-78
2021/06/30 17:05:21;;;;;;;2.40;1.50;;;;;;;24.03;38.37;92187.63;5094145;28;20279;-78
2021/06/30 17:07:47;;;;;;;2.72;1.52;;;;;;;24.04;36.46;92189.13;5094220;28;20052;-80
2021/06/30 17:10:14;;;;;;;7.15;1.70;;;;;;;23.33;40.35;92194.88;5096432;27;20035;-78
2021/06/30 17:12:39;;;;;;;2.80;1.63;;;;;;;23.30;40.74;92191.03;5119336;27;20497;-77
2021/06/30 17:15:44;;;;;;;4.88;1.85;;;;;;;22.91;41.68;92202.19;5093343;28;20046;-78
2021/06/30 17:18:09;;;;;;;5.40;2.00;;;;;;;22.89;41.04;92204.47;5089070;28;20052;-78
2021/06/30 17:20:35;;;;;;;6.78;2.20;;;;;;;22.86;41.47;92199.88;5053404;28;20051;-77
2021/06/30 17:23:01;;;;;;;6.53;2.45;;;;;;;22.60;44.35;92198.88;5057940;28;20039;-77
2021/06/30 17:25:27;;;;;;;7.50;2.42;;;;;;;22.73;41.55;92211.97;5114687;27;20531;-77
2021/06/30 17:27:53;;;;;;;9.82;2.25;;;;;;;22.76;42.16;92200.56;5094687;28;20044;-79
2021/06/30 17:30:22;;;;;;;6.88;2.20;;;;;;;22.63;41.19;92197.41;5071039;28;20051;-78
2021/06/30 17:32:53;;;;;;;4.68;2.10;;;;;;;22.48;42.77;92204.50;5093235;28;20039;-80
2021/06/30 17:35:19;;;;;;;11.45;2.10;;;;;;;22.61;43.63;92205.00;5099478;28;20044;-76
2021/06/30 17:37:44;;;;;;;5.10;2.25;;;;;;;22.68;44.92;92202.41;5073597;28;20484;-76
2021/06/30 17:40:11;;;;;;;5.70;2.05;;;;;;;22.78;45.33;92207.03;5091797;28;20043;-76
2021/06/30 17:42:37;;;;;;;4.50;1.80;;;;;;;22.97;44.65;92211.41;5075452;28;20051;-76
2021/06/30 17:45:07;;;;;;;11.07;4.28;;;;;;;23.06;45.61;92211.88;5091443;28;20133;-76
2021/06/30 17:47:33;;;;;;;4.82;2.30;;;;;;;23.00;44.25;92218.69;5109186;28;20039;-76
2021/06/30 17:49:59;;;;;;;4.63;2.00;;;;;;;22.96;41.95;92212.53;5112218;27;20043;-76
2021/06/30 17:52:25;;;;;;;7.38;2.40;;;;;;;22.98;42.15;92207.59;5072185;28;20039;-76